< < Back
Terminal Aerodrome Forecast


Current Version              Previous Versions:   1  2  3  4  5  6  7  8  9  

Terminal Aerodrome Forecast

724
FTUS44 KBMX 280500
TAFMGM
TAF
KMGM 280527Z 2806/2906 24006KT P6SM SCT250
      TEMPO 2808/2812 00000KT 4SM BR
     FM281400 25005KT P6SM BKN070
      TEMPO 2817/2819 4SM -SHRA BKN020
     FM281900 29012KT 3SM SHRA VCTS BKN025CB BKN070
     FM290400 30004KT P6SM SKC=

Latest METAR

211
SAUS80 KWBC 280800 RRA
MTRMGM
METAR KMGM 280753Z AUTO 22004KT 9SM FEW045 26/23 A2996 RMK AO2 SLP143
T02610233


USA.gov is the U.S. government's official web portal to all federal, state and local government web resources and services.